Time;durP1;ratioP1;P1;durP2;ratioP2;P2;SDS_P1;SDS_P2;PMS_P1;PMS_P2;Temp;Humidity;BMP_temperature;BMP_pressure;BME280_temperature;BME280_humidity;BME280_pressure;Samples;Min_cycle;Max_cycle;Signal;HPM_P1;HPM_P2
2022/11/07 00:01:38;;;;;;;;;2.00;2.00;;;;;20.57;44.57;100671.34;5057287;28;45338;-59
2022/11/07 00:04:04;;;;;;;;;3.00;1.50;;;;;20.59;44.47;100677.38;5057422;28;45473;-60
2022/11/07 00:06:30;;;;;;;;;2.00;2.00;;;;;20.57;44.44;100684.50;5057904;28;45957;-59
2022/11/07 00:08:57;;;;;;;;;3.25;1.75;;;;;20.57;44.23;100673.97;5059457;28;45244;-57
2022/11/07 00:11:22;;;;;;;;;4.50;2.00;;;;;20.54;44.64;100679.44;5071882;28;45735;-60
2022/11/07 00:13:48;;;;;;;;;1.00;1.00;;;;;20.55;44.64;100681.16;5076127;28;45361;-55
2022/11/07 00:16:13;;;;;;;;;0.50;0.25;;;;;20.53;44.75;100686.47;5076127;28;56339;-60
2022/11/07 00:18:38;;;;;;;;;2.33;2.00;;;;;20.52;44.79;100683.94;5065742;28;62706;-56
2022/11/07 00:21:06;;;;;;;;;2.75;2.50;;;;;20.52;44.83;100684.78;5062489;28;55364;-57
2022/11/07 00:23:31;;;;;;;;;1.25;1.25;;;;;20.49;44.38;100686.75;5057366;28;45576;-60
2022/11/07 00:26:04;;;;;;;;;2.00;1.00;;;;;20.48;44.55;100679.78;5057182;28;47099;-55
2022/11/07 00:28:33;;;;;;;;;2.00;2.00;;;;;20.50;44.90;100691.09;5063064;28;45341;-56
2022/11/07 00:30:58;;;;;;;;;1.00;0.00;;;;;20.47;44.44;100678.09;5062561;28;45366;-56
2022/11/07 00:33:24;;;;;;;;;1.00;1.00;;;;;20.50;44.59;100688.44;5084984;28;44834;-54
2022/11/07 00:35:49;;;;;;;;;2.50;2.00;;;;;20.50;44.34;100688.44;5064089;28;46383;-57
2022/11/07 00:38:14;;;;;;;;;3.00;2.00;;;;;20.48;44.70;100692.94;5060441;28;46120;-57
2022/11/07 00:40:40;;;;;;;;;2.00;2.00;;;;;20.48;44.91;100687.69;5058662;28;45319;-59
2022/11/07 00:43:05;;;;;;;;;2.00;2.00;;;;;20.47;44.74;100694.75;5060136;28;45533;-57
2022/11/07 00:45:30;;;;;;;;;1.75;1.75;;;;;20.42;44.91;100691.50;5066687;28;59614;-54
2022/11/07 00:47:55;;;;;;;;;2.33;1.00;;;;;20.45;45.04;100691.34;5056622;28;60511;-54
2022/11/07 00:50:21;;;;;;;;;2.00;1.00;;;;;20.41;44.84;100678.44;5055472;28;61246;-57
2022/11/07 00:52:46;;;;;;;;;3.00;1.50;;;;;20.45;45.13;100687.88;5056351;28;45546;-56
2022/11/07 00:55:11;;;;;;;;;2.00;2.00;;;;;20.39;45.00;100682.03;5055833;28;53600;-56
2022/11/07 00:57:37;;;;;;;;;0.75;0.75;;;;;20.44;44.77;100691.44;5056032;28;47906;-57
2022/11/07 01:00:04;;;;;;;;;2.00;2.00;;;;;20.38;44.66;100679.47;5056448;28;45342;-54
2022/11/07 01:02:29;;;;;;;;;1.75;1.75;;;;;20.38;44.61;100679.47;5056516;28;45284;-54
2022/11/07 01:05:09;;;;;;;;;2.00;2.00;;;;;20.40;44.98;100682.84;5056359;28;46263;-55
2022/11/07 01:07:35;;;;;;;;;2.75;2.00;;;;;20.38;44.49;100677.69;5056337;28;45942;-57
2022/11/07 01:10:01;;;;;;;;;2.00;2.00;;;;;20.40;44.82;100677.59;5056253;28;45324;-55
2022/11/07 01:12:26;;;;;;;;;3.00;2.00;;;;;20.39;44.89;100681.19;5056858;28;45471;-57
2022/11/07 01:14:52;;;;;;;;;4.00;3.00;;;;;20.39;45.12;100691.72;5056088;28;46085;-56
2022/11/07 01:17:17;;;;;;;;;1.25;1.25;;;;;20.38;45.02;100687.38;5054951;28;45341;-56
2022/11/07 01:19:42;;;;;;;;;1.00;1.00;;;;;20.38;45.09;100696.13;5062398;28;45867;-55
2022/11/07 01:22:08;;;;;;;;;1.00;1.00;;;;;20.33;45.18;100692.91;5063615;28;45604;-55
2022/11/07 01:24:33;;;;;;;;;2.00;2.00;;;;;20.36;44.66;100687.44;5055936;28;47230;-55
2022/11/07 01:26:58;;;;;;;;;3.25;2.00;;;;;20.36;44.66;100703.25;5056330;28;45351;-57
2022/11/07 01:29:24;;;;;;;;;1.33;1.00;;;;;20.35;44.91;100691.00;5055336;28;60147;-58
2022/11/07 01:31:49;;;;;;;;;1.50;1.00;;;;;20.35;44.83;100706.81;5056318;28;45302;-56
2022/11/07 01:34:16;;;;;;;;;1.00;1.00;;;;;20.35;44.76;100696.28;5055922;28;47081;-55
2022/11/07 01:36:42;;;;;;;;;4.00;2.00;;;;;20.35;44.77;100685.75;5055888;28;45307;-55
2022/11/07 01:39:07;;;;;;;;;1.25;1.25;;;;;20.30;44.94;100685.19;5056966;28;45323;-60
2022/11/07 01:41:41;;;;;;;;;3.25;2.00;;;;;20.34;44.84;100691.13;5064133;28;45310;-59
2022/11/07 01:44:07;;;;;;;;;2.00;2.00;;;;;20.33;45.19;100698.19;5061705;28;45468;-58
2022/11/07 01:46:40;;;;;;;;;3.00;1.00;;;;;20.33;44.78;100692.91;5054794;28;48124;-61
2022/11/07 01:49:22;;;;;;;;;1.25;1.25;;;;;20.32;44.94;100690.34;5056074;28;45413;-57
2022/11/07 01:51:54;;;;;;;;;2.75;2.00;;;;;20.32;45.33;100701.75;5058007;28;45181;-57
2022/11/07 01:54:25;;;;;;;;;1.00;1.00;;;;;20.31;44.77;100704.44;5059312;28;45384;-58
2022/11/07 01:56:53;;;;;;;;;3.75;1.50;;;;;20.30;45.08;100711.50;5059725;28;45279;-57
2022/11/07 01:59:22;;;;;;;;;2.00;2.00;;;;;20.30;44.74;100719.41;5063880;28;45489;-57
2022/11/07 02:01:48;;;;;;;;;3.00;1.50;;;;;20.28;45.24;100710.72;5063475;28;45252;-55
2022/11/07 02:04:15;;;;;;;;;1.75;1.75;;;;;20.29;45.35;100707.16;5071511;28;46696;-56
2022/11/07 02:06:58;;;;;;;;;1.00;1.00;;;;;20.28;45.34;100709.91;5073512;28;45153;-59
2022/11/07 02:09:24;;;;;;;;;1.00;1.00;;;;;20.27;45.37;100697.66;5072098;28;45343;-60
2022/11/07 02:11:49;;;;;;;;;2.25;1.00;;;;;20.27;45.17;100706.41;5060733;28;45184;-63
2022/11/07 02:14:15;;;;;;;;;3.75;1.00;;;;;20.25;45.28;100705.63;5059431;28;56598;-58
2022/11/07 02:16:41;;;;;;;;;1.00;1.00;;;;;20.24;44.96;100701.28;5060718;28;45377;-56
2022/11/07 02:19:15;;;;;;;;;1.00;1.00;;;;;20.25;45.41;100708.25;5065913;28;45275;-58
2022/11/07 02:21:57;;;;;;;;;2.50;1.25;;;;;20.26;45.03;100704.69;5063120;28;45486;-57
2022/11/07 02:24:28;;;;;;;;;2.00;2.00;;;;;20.24;44.97;100711.81;5065889;28;45297;-57
2022/11/07 02:26:55;;;;;;;;;0.00;0.00;;;;;20.23;45.12;100708.38;5059527;28;45792;-56
2022/11/07 02:29:21;;;;;;;;;1.00;1.00;;;;;20.23;45.35;100712.75;5060673;28;45260;-57
2022/11/07 02:31:47;;;;;;;;;2.50;2.00;;;;;20.23;45.41;100712.75;5060827;28;45516;-57
2022/11/07 02:34:12;;;;;;;;;3.00;1.00;;;;;20.22;45.27;100711.09;5058203;28;61416;-60
2022/11/07 02:36:37;;;;;;;;;3.00;1.25;;;;;20.22;44.84;100714.56;5059027;28;45378;-55
2022/11/07 02:39:03;;;;;;;;;2.00;1.00;;;;;20.22;45.45;100705.81;5060168;28;45366;-56
2022/11/07 02:41:32;;;;;;;;;3.50;1.00;;;;;20.21;45.33;100714.66;5061244;28;45577;-61
2022/11/07 02:44:01;;;;;;;;;2.75;1.75;;;;;20.21;44.90;100704.13;5085051;28;46033;-58
2022/11/07 02:46:28;;;;;;;;;3.75;1.00;;;;;20.20;45.61;100697.16;5079170;28;45071;-61
2022/11/07 02:48:55;;;;;;;;;3.25;1.25;;;;;20.14;45.15;100689.59;5065159;28;45248;-59
2022/11/07 02:51:21;;;;;;;;;2.00;2.00;;;;;20.20;45.55;100702.44;5064070;28;45276;-55
2022/11/07 02:53:46;;;;;;;;;1.00;1.00;;;;;20.19;45.52;100695.47;5060315;28;46627;-61
2022/11/07 02:56:12;;;;;;;;;1.00;1.00;;;;;20.19;45.37;100687.56;5058131;28;45961;-58
2022/11/07 02:58:38;;;;;;;;;3.25;1.00;;;;;20.19;45.18;100684.94;5067571;28;45335;-60
2022/11/07 03:01:07;;;;;;;;;1.00;1.00;;;;;20.17;45.48;100677.13;5069396;28;45414;-60
2022/11/07 03:03:38;;;;;;;;;2.00;1.50;;;;;20.18;45.51;100685.88;5080365;28;45323;-57
2022/11/07 03:06:05;;;;;;;;;1.00;1.00;;;;;20.15;45.27;100678.13;5074872;28;45769;-58
2022/11/07 03:08:30;;;;;;;;;2.75;2.00;;;;;20.17;45.49;100690.31;5059497;28;45715;-57
2022/11/07 03:10:56;;;;;;;;;0.75;0.75;;;;;20.16;44.96;100693.00;5058493;28;45353;-56
2022/11/07 03:13:22;;;;;;;;;1.25;1.00;;;;;20.16;45.26;100693.84;5056964;28;63521;-57
2022/11/07 03:15:48;;;;;;;;;1.00;1.00;;;;;20.17;45.18;100694.69;5057806;28;46111;-56
2022/11/07 03:18:14;;;;;;;;;1.00;1.00;;;;;20.16;45.07;100707.03;5057851;28;45279;-60
2022/11/07 03:20:39;;;;;;;;;2.75;1.00;;;;;20.16;45.34;100708.78;5060974;28;45510;-56
2022/11/07 03:23:04;;;;;;;;;2.25;1.00;;;;;20.15;45.13;100709.72;5073565;28;46032;-55
2022/11/07 03:25:30;;;;;;;;;0.25;0.25;;;;;20.11;45.31;100708.22;5058995;28;45200;-56
2022/11/07 03:27:55;;;;;;;;;2.50;1.50;;;;;20.14;45.43;100714.16;5057422;28;45327;-58
2022/11/07 03:30:20;;;;;;;;;1.00;1.00;;;;;20.14;45.23;100708.00;5065381;28;54840;-57
2022/11/07 03:32:45;;;;;;;;;0.50;0.50;;;;;20.14;45.34;100708.00;5064237;28;62283;-55
2022/11/07 03:35:12;;;;;;;;;2.75;1.00;;;;;20.14;45.56;100718.53;5058014;28;45347;-58
2022/11/07 03:37:37;;;;;;;;;3.00;2.00;;;;;20.13;45.17;100716.84;5058565;28;45268;-56
2022/11/07 03:40:03;;;;;;;;;1.00;1.00;;;;;20.12;45.36;100716.00;5057146;28;45236;-55
2022/11/07 03:42:28;;;;;;;;;1.25;1.25;;;;;20.13;45.37;100711.56;5057367;28;46259;-55
2022/11/07 03:44:53;;;;;;;;;1.00;1.00;;;;;20.08;45.74;100706.56;5066543;28;45341;-55
2022/11/07 03:47:18;;;;;;;;;2.00;1.00;;;;;20.11;45.72;100711.66;5073013;28;45386;-56
2022/11/07 03:49:44;;;;;;;;;4.00;1.75;;;;;20.12;45.28;100704.66;5060478;28;45407;-56
2022/11/07 03:52:09;;;;;;;;;1.00;1.00;;;;;20.11;45.51;100705.56;5057285;28;46103;-55
2022/11/07 03:54:34;;;;;;;;;4.00;1.00;;;;;20.09;45.32;100692.47;5057563;28;45335;-56
2022/11/07 03:57:00;;;;;;;;;0.50;0.50;;;;;20.10;45.59;100694.19;5057476;28;45422;-55
2022/11/07 03:59:25;;;;;;;;;1.75;1.00;;;;;20.10;45.53;100693.34;5057595;28;45575;-54
2022/11/07 04:01:50;;;;;;;;;2.00;1.00;;;;;20.09;45.67;100689.84;5056934;28;52367;-57
2022/11/07 04:04:16;;;;;;;;;1.75;1.00;;;;;20.10;45.53;100701.25;5057227;28;45335;-56
2022/11/07 04:06:41;;;;;;;;;2.00;0.75;;;;;20.10;45.81;100695.97;5057099;28;48006;-57
2022/11/07 04:09:07;;;;;;;;;0.50;0.25;;;;;20.09;45.47;100695.13;5057667;28;45564;-55
2022/11/07 04:17:18;;;;;;;;;1.00;1.00;;;;;20.05;45.20;100680.47;5057200;28;45378;-56
2022/11/07 04:19:48;;;;;;;;;1.00;1.00;;;;;20.06;45.82;100685.63;5056185;28;45439;-57
2022/11/07 04:22:13;;;;;;;;;2.25;1.00;;;;;20.07;45.35;100686.44;5056166;28;45413;-53
2022/11/07 04:24:40;;;;;;;;;1.00;1.00;;;;;20.05;45.79;100683.91;5060834;28;45296;-55
2022/11/07 04:29:49;;;;;;;;;4.00;1.00;;;;;20.05;45.80;100691.81;5057424;28;45327;-57
2022/11/07 04:32:14;;;;;;;;;0.75;0.75;;;;;20.05;45.36;100694.44;5056733;28;46237;-55
2022/11/07 04:34:39;;;;;;;;;0.50;0.50;;;;;20.05;45.87;100697.06;5057072;28;45386;-58
2022/11/07 04:37:05;;;;;;;;;0.00;0.00;;;;;20.05;45.83;100702.34;5057218;28;45247;-56
2022/11/07 04:39:30;;;;;;;;;1.67;1.00;;;;;20.05;45.42;100704.13;5057119;28;52237;-57
2022/11/07 04:41:55;;;;;;;;;3.00;1.33;;;;;20.04;45.51;100707.69;5064508;28;56476;-60
2022/11/07 04:44:21;;;;;;;;;1.00;1.00;;;;;20.00;45.70;100698.25;5067703;28;45297;-56
2022/11/07 04:46:46;;;;;;;;;1.00;1.00;;;;;20.04;45.96;100710.31;5080697;28;44658;-57
2022/11/07 04:49:14;;;;;;;;;5.33;1.00;;;;;20.03;45.54;100711.25;5057968;28;50274;-56
2022/11/07 04:51:43;;;;;;;;;4.00;1.00;;;;;20.02;45.87;100713.03;5058279;28;45671;-56
2022/11/07 04:54:15;;;;;;;;;1.00;1.00;;;;;20.01;45.57;100708.69;5062668;28;45268;-56
2022/11/07 04:56:41;;;;;;;;;1.50;1.50;;;;;19.99;45.57;100705.31;5058486;28;45346;-57
2022/11/07 04:59:06;;;;;;;;;1.75;1.75;;;;;19.98;45.49;100698.34;5058116;28;45424;-56
2022/11/07 05:01:32;;;;;;;;;0.50;0.50;;;;;19.99;45.67;100700.06;5057363;28;45532;-55
2022/11/07 05:03:57;;;;;;;;;2.25;2.00;;;;;20.01;45.58;100708.69;5057862;28;45348;-56
2022/11/07 05:06:23;;;;;;;;;2.25;2.00;;;;;20.01;46.04;100703.44;5057517;28;45394;-58
2022/11/07 05:08:48;;;;;;;;;1.00;1.00;;;;;19.99;45.81;100694.81;5061450;28;45481;-58
2022/11/07 05:11:14;;;;;;;;;1.00;1.00;;;;;20.01;45.52;100700.78;5061730;28;45425;-57
2022/11/07 05:13:39;;;;;;;;;3.00;1.00;;;;;20.01;45.37;100695.53;5060443;28;45188;-54
2022/11/07 05:16:05;;;;;;;;;3.00;1.00;;;;;20.01;46.03;100692.91;5070129;28;45165;-57
2022/11/07 05:18:31;;;;;;;;;2.50;1.25;;;;;20.00;46.04;100685.97;5072688;28;45220;-56
2022/11/07 05:20:56;;;;;;;;;1.00;1.00;;;;;19.97;45.79;100683.50;5059203;28;48181;-58
2022/11/07 05:23:21;;;;;;;;;1.75;0.25;;;;;19.99;46.01;100688.66;5062086;28;45289;-57
2022/11/07 05:25:51;;;;;;;;;0.25;0.00;;;;;20.00;45.76;100695.63;5063206;28;45283;-58
2022/11/07 05:28:22;;;;;;;;;2.75;1.00;;;;;20.00;46.14;100695.63;5061621;28;45264;-59
2022/11/07 05:30:47;;;;;;;;;1.00;1.00;;;;;19.99;45.97;100702.69;5042762;28;46408;-57
2022/11/07 05:33:15;;;;;;;;;1.50;1.00;;;;;19.95;46.17;100701.16;5060938;28;45374;-58
2022/11/07 05:35:40;;;;;;;;;3.50;2.00;;;;;19.95;45.83;100703.78;5061274;28;45847;-57
2022/11/07 05:38:06;;;;;;;;;1.00;1.00;;;;;19.98;45.80;100714.16;5060989;28;45398;-61
2022/11/07 05:40:34;;;;;;;;;0.75;0.75;;;;;19.96;46.14;100715.13;5060231;28;46188;-58
2022/11/07 05:43:08;;;;;;;;;1.00;1.00;;;;;19.97;45.81;100716.84;5060540;28;45387;-60
2022/11/07 05:45:38;;;;;;;;;0.75;0.00;;;;;19.97;45.99;100720.34;5060625;28;45425;-57
2022/11/07 05:48:08;;;;;;;;;1.00;1.00;;;;;19.96;46.12;100712.50;5061096;28;45368;-58
2022/11/07 05:50:35;;;;;;;;;2.50;0.75;;;;;19.95;46.31;100730.09;5060938;28;45263;-58
2022/11/07 05:53:01;;;;;;;;;1.50;0.25;;;;;19.91;46.29;100718.03;5082277;28;45249;-57
2022/11/07 05:55:26;;;;;;;;;1.25;1.25;;;;;19.95;46.00;100730.09;5083786;28;45304;-59
2022/11/07 05:57:51;;;;;;;;;1.00;0.50;;;;;19.95;46.11;100729.25;5064609;28;45303;-58
2022/11/07 06:00:18;;;;;;;;;3.75;1.25;;;;;19.94;46.48;100733.66;5069491;28;45871;-56
2022/11/07 06:02:44;;;;;;;;;3.25;1.50;;;;;19.92;46.22;100731.13;5060520;28;45278;-55
2022/11/07 06:05:10;;;;;;;;;6.25;4.00;;;;;19.93;46.74;100738.06;5060347;28;45315;-58
2022/11/07 06:07:37;;;;;;;;;3.00;2.50;;;;;19.94;46.54;100733.66;5060340;28;45324;-54
2022/11/07 06:10:07;;;;;;;;;4.75;3.00;;;;;19.94;46.61;100731.00;5064161;28;45420;-53
2022/11/07 06:12:32;;;;;;;;;5.75;3.75;;;;;19.94;46.35;100725.75;5071644;28;45228;-55
2022/11/07 06:14:58;;;;;;;;;2.25;2.00;;;;;19.89;46.58;100717.28;5067078;28;45570;-55
2022/11/07 06:17:23;;;;;;;;;5.00;5.00;;;;;19.94;46.43;100736.28;5059874;28;45729;-55
2022/11/07 06:19:49;;;;;;;;;6.25;3.75;;;;;19.94;46.37;100736.28;5059687;28;46304;-55
2022/11/07 06:22:14;;;;;;;;;6.00;4.00;;;;;19.95;46.36;100740.59;5059374;28;62079;-54
2022/11/07 06:24:40;;;;;;;;;6.00;4.75;;;;;19.92;46.57;100740.75;5058506;28;45421;-55
2022/11/07 06:27:05;;;;;;;;;5.50;4.00;;;;;19.95;46.61;100747.66;5059943;28;45349;-57
2022/11/07 06:29:30;;;;;;;;;5.00;3.75;;;;;19.95;46.64;100745.03;5061244;28;45340;-61
2022/11/07 06:31:56;;;;;;;;;3.50;3.50;;;;;19.95;46.23;100747.66;5073706;28;45361;-57
2022/11/07 06:34:21;;;;;;;;;5.00;4.00;;;;;19.95;46.28;100756.38;5081765;28;45278;-55
2022/11/07 06:36:52;;;;;;;;;3.50;3.50;;;;;19.93;46.56;100756.47;5083433;28;48093;-56
2022/11/07 06:39:17;;;;;;;;;3.50;2.50;;;;;19.95;46.76;100753.75;5080240;28;46520;-62
2022/11/07 06:41:42;;;;;;;;;5.33;4.67;;;;;19.92;46.29;100752.16;5067665;28;59441;-54
2022/11/07 06:44:07;;;;;;;;;4.67;4.67;;;;;19.92;46.51;100751.28;5061631;28;58388;-56
2022/11/07 06:46:33;;;;;;;;;6.00;3.67;;;;;19.95;46.19;100756.38;5065459;28;46077;-55
2022/11/07 06:48:58;;;;;;;;;5.00;3.00;;;;;19.95;46.40;100753.75;5061116;28;54255;-58
2022/11/07 06:51:23;;;;;;;;;3.25;3.25;;;;;19.95;46.35;100748.50;5058411;28;45342;-55
2022/11/07 06:53:49;;;;;;;;;6.00;3.50;;;;;19.95;46.81;100755.56;5058497;28;45340;-57
2022/11/07 06:56:15;;;;;;;;;4.25;3.00;;;;;19.90;46.72;100755.78;5059736;28;45640;-56
2022/11/07 06:58:40;;;;;;;;;4.25;3.00;;;;;19.94;46.34;100765.22;5058876;28;46988;-58
2022/11/07 07:01:08;;;;;;;;;4.75;3.00;;;;;19.95;46.37;100766.06;5059169;28;45325;-57
2022/11/07 07:03:34;;;;;;;;;4.25;3.50;;;;;19.94;46.52;100759.94;5059474;28;45311;-57
2022/11/07 07:06:04;;;;;;;;;2.75;2.00;;;;;19.94;46.78;100765.22;5057750;28;45331;-54
2022/11/07 07:08:30;;;;;;;;;4.50;3.00;;;;;19.92;46.19;100764.44;5059133;28;46312;-59
2022/11/07 07:11:00;;;;;;;;;2.50;2.50;;;;;19.94;46.68;100770.47;5057179;28;45846;-57
2022/11/07 07:13:25;;;;;;;;;2.00;2.00;;;;;19.93;46.39;100768.78;5057481;28;45274;-54
2022/11/07 07:15:54;;;;;;;;;4.25;3.00;;;;;19.93;46.39;100774.03;5060290;28;45445;-54
2022/11/07 07:18:20;;;;;;;;;2.00;2.00;;;;;19.90;46.86;100768.94;5076572;28;46085;-58
2022/11/07 07:20:47;;;;;;;;;2.25;2.25;;;;;19.92;46.63;100775.81;5060976;28;45289;-54
2022/11/07 07:23:12;;;;;;;;;3.00;3.00;;;;;19.93;46.50;100776.66;5058288;28;45359;-58
2022/11/07 07:25:37;;;;;;;;;3.25;2.00;;;;;19.92;46.30;100775.81;5059802;28;45325;-55
2022/11/07 07:28:03;;;;;;;;;2.25;2.00;;;;;19.93;46.92;100779.28;5058880;28;46188;-55
2022/11/07 07:30:28;;;;;;;;;3.75;2.00;;;;;19.93;46.83;100781.94;5059604;28;45227;-59
2022/11/07 07:32:53;;;;;;;;;2.75;2.00;;;;;19.87;46.86;100774.38;5061715;28;45229;-55
2022/11/07 07:35:19;;;;;;;;;4.00;3.33;;;;;19.89;46.64;100772.53;5066044;28;55468;-56
2022/11/07 07:37:49;;;;;;;;;2.50;2.50;;;;;19.87;46.89;100771.75;5076375;28;45748;-56
2022/11/07 07:40:15;;;;;;;;;1.25;1.00;;;;;19.92;46.90;100785.47;5076605;28;45319;-55
2022/11/07 07:42:42;;;;;;;;;2.25;2.00;;;;;19.91;46.83;100787.28;5076419;28;45383;-56
2022/11/07 07:45:09;;;;;;;;;2.00;2.00;;;;;19.91;47.13;100789.03;5066388;28;45589;-56
2022/11/07 07:47:34;;;;;;;;;2.25;2.00;;;;;19.91;46.93;100784.66;5083799;28;46389;-55
2022/11/07 07:50:00;;;;;;;;;1.00;1.00;;;;;19.89;47.05;100783.03;5069188;28;56377;-57
2022/11/07 07:52:25;;;;;;;;;2.33;1.00;;;;;19.89;46.70;100781.25;5059058;28;61577;-56
2022/11/07 07:54:50;;;;;;;;;3.00;1.33;;;;;19.89;47.39;100788.28;5057213;28;53763;-55
2022/11/07 07:57:15;;;;;;;;;1.25;1.00;;;;;19.85;47.21;100779.66;5057890;28;47012;-56
2022/11/07 07:59:41;;;;;;;;;4.25;1.50;;;;;19.87;47.44;100785.72;5059946;28;45185;-56
2022/11/07 08:02:10;;;;;;;;;2.00;2.00;;;;;19.87;47.42;100785.72;5059478;28;45216;-56
2022/11/07 08:04:36;;;;;;;;;3.75;3.00;;;;;19.87;47.47;100795.41;5059093;28;45331;-53
2022/11/07 08:07:01;;;;;;;;;3.00;3.00;;;;;19.87;47.46;100796.25;5058272;28;47038;-57
2022/11/07 08:09:26;;;;;;;;;3.50;1.00;;;;;19.88;47.57;100797.94;5058096;28;45409;-59
2022/11/07 08:11:52;;;;;;;;;3.50;1.25;;;;;19.85;47.11;100789.34;5058371;28;45376;-60
2022/11/07 08:14:17;;;;;;;;;2.00;1.00;;;;;19.89;47.42;100804.91;5058394;28;45313;-58
2022/11/07 08:16:42;;;;;;;;;1.25;1.00;;;;;19.88;47.14;100813.72;5058113;28;49113;-57
2022/11/07 08:19:08;;;;;;;;;2.00;2.00;;;;;19.88;47.62;100810.28;5057130;28;45400;-56
2022/11/07 08:21:33;;;;;;;;;4.00;1.50;;;;;19.71;47.75;100790.91;5059578;28;45208;-58
2022/11/07 08:23:59;;;;;;;;;5.00;1.75;;;;;19.89;47.50;100814.59;5074722;28;45344;-56
2022/11/07 08:26:25;;;;;;;;;1.50;1.50;;;;;19.91;47.38;100831.13;5066632;28;46329;-57
2022/11/07 08:28:52;;;;;;;;;3.50;1.75;;;;;19.91;47.68;100829.38;5058419;28;45318;-53
2022/11/07 08:31:18;;;;;;;;;3.75;1.00;;;;;19.77;47.35;100798.50;5058244;28;45223;-56
2022/11/07 08:33:44;;;;;;;;;2.25;2.00;;;;;19.91;47.41;100817.97;5058825;28;45700;-56
2022/11/07 08:36:09;;;;;;;;;2.00;1.75;;;;;19.92;47.55;100822.31;5062424;28;45996;-59
2022/11/07 08:38:35;;;;;;;;;2.00;2.00;;;;;19.86;47.84;100807.69;5067830;28;45373;-61
2022/11/07 08:41:01;;;;;;;;;2.00;1.00;;;;;19.90;48.00;100819.78;5081986;28;44776;-54
2022/11/07 08:43:26;;;;;;;;;3.00;1.00;;;;;19.88;47.66;100813.72;5079221;28;44893;-56
2022/11/07 08:45:53;;;;;;;;;1.50;1.50;;;;;19.93;47.99;100818.75;5061363;28;45481;-58
2022/11/07 08:48:18;;;;;;;;;2.00;1.00;;;;;19.93;48.06;100817.00;5060618;28;45774;-57
2022/11/07 08:50:44;;;;;;;;;1.00;1.00;;;;;19.94;47.44;100825.72;5056479;28;45303;-53
2022/11/07 08:53:10;;;;;;;;;3.50;1.00;;;;;19.95;47.88;100821.31;5056458;28;45260;-53
2022/11/07 08:55:36;;;;;;;;;1.50;1.00;;;;;19.95;47.58;100824.78;5056059;28;47042;-55
2022/11/07 08:58:04;;;;;;;;;3.25;1.75;;;;;19.90;47.74;100817.13;5056108;28;45240;-55
2022/11/07 09:00:30;;;;;;;;;1.00;1.00;;;;;19.95;47.70;100816.91;5056301;28;45382;-55
2022/11/07 09:02:59;;;;;;;;;2.00;2.00;;;;;19.96;47.73;100815.09;5060874;28;45303;-57
2022/11/07 09:05:24;;;;;;;;;5.00;2.00;;;;;19.91;47.73;100818.84;5059920;28;46307;-58
2022/11/07 09:07:49;;;;;;;;;3.00;2.00;;;;;19.89;48.35;100825.97;5069167;28;59697;-55
2022/11/07 09:10:15;;;;;;;;;1.00;1.00;;;;;19.95;48.06;100834.47;5075486;28;44637;-55
2022/11/07 09:12:47;;;;;;;;;3.25;2.00;;;;;19.94;48.25;100844.13;5077000;28;44965;-55
2022/11/07 09:15:13;;;;;;;;;6.25;1.50;;;;;19.90;48.00;100840.81;5056552;28;46175;-55
2022/11/07 09:17:40;;;;;;;;;1.75;1.75;;;;;19.91;48.13;100842.50;5058020;28;45274;-54
2022/11/07 09:20:06;;;;;;;;;3.50;2.00;;;;;19.86;47.76;100834.00;5060490;28;45231;-55
2022/11/07 09:22:31;;;;;;;;;2.00;2.00;;;;;19.85;48.00;100820.91;5059039;28;45582;-56
2022/11/07 09:24:56;;;;;;;;;2.00;2.00;;;;;19.90;48.00;100832.91;5061157;28;47038;-57
2022/11/07 09:27:22;;;;;;;;;4.25;1.00;;;;;19.91;48.01;100834.63;5066095;28;45762;-55
2022/11/07 09:29:47;;;;;;;;;1.50;1.50;;;;;19.87;48.28;100829.59;5068788;28;45340;-55
2022/11/07 09:32:12;;;;;;;;;5.25;2.00;;;;;19.87;48.37;100832.25;5068098;28;45772;-56
2022/11/07 09:34:38;;;;;;;;;2.50;1.00;;;;;19.92;47.71;100835.47;5056029;28;45293;-55
2022/11/07 09:37:04;;;;;;;;;3.50;1.75;;;;;19.93;48.19;100837.16;5055881;28;45434;-55
2022/11/07 09:39:29;;;;;;;;;3.25;2.00;;;;;19.93;47.68;100842.44;5056637;28;45335;-55
2022/11/07 09:42:10;;;;;;;;;4.00;2.00;;;;;19.90;47.85;100830.28;5058885;28;45302;-56
2022/11/07 09:44:54;;;;;;;;;4.00;2.00;;;;;19.93;47.70;100837.16;5056359;28;45354;-56
2022/11/07 09:47:43;;;;;;;;;2.00;2.00;;;;;19.93;47.95;100832.78;5055690;28;45235;-56
2022/11/07 09:50:31;;;;;;;;;2.00;1.00;;;;;19.94;47.96;100838.88;5057254;28;45384;-57
2022/11/07 09:52:59;;;;;;;;;1.75;1.00;;;;;19.94;47.90;100836.22;5067293;28;45298;-55
2022/11/07 09:55:30;;;;;;;;;2.75;1.00;;;;;19.95;47.57;100837.94;5073551;28;45256;-55
2022/11/07 09:58:00;;;;;;;;;0.50;0.50;;;;;19.90;48.00;100835.56;5059105;28;45825;-56
2022/11/07 10:00:29;;;;;;;;;5.50;2.00;;;;;19.93;47.65;100838.03;5056204;28;45306;-55
2022/11/07 10:02:57;;;;;;;;;3.25;2.25;;;;;19.88;47.61;100834.78;5055943;28;45530;-56
2022/11/07 10:05:41;;;;;;;;;3.00;2.25;;;;;19.93;47.80;100837.16;5055699;28;46327;-56
2022/11/07 10:08:37;;;;;;;;;4.00;1.00;;;;;19.95;47.83;100839.72;5055468;28;46009;-57
2022/11/07 10:11:12;;;;;;;;;2.00;1.00;;;;;19.94;47.53;100844.13;5054710;28;45343;-55
2022/11/07 10:13:47;;;;;;;;;2.00;2.00;;;;;19.89;47.36;100840.91;5062793;28;45346;-55
2022/11/07 10:16:19;;;;;;;;;1.00;1.00;;;;;19.95;47.73;100851.09;5065503;28;45572;-54
2022/11/07 10:18:52;;;;;;;;;1.25;1.00;;;;;19.93;47.64;100838.03;5080097;28;45136;-55
2022/11/07 10:21:32;;;;;;;;;2.00;1.00;;;;;19.95;47.77;100851.09;5087055;28;44756;-55
2022/11/07 10:24:12;;;;;;;;;4.00;1.00;;;;;19.88;47.91;100826.06;5058152;28;45530;-55
2022/11/07 10:26:42;;;;;;;;;1.25;1.25;;;;;19.88;47.91;100823.41;5058487;28;47213;-55
2022/11/07 10:29:19;;;;;;;;;1.25;1.00;;;;;19.95;47.46;100830.03;5058841;28;45413;-55
2022/11/07 10:32:02;;;;;;;;;0.75;0.75;;;;;19.93;47.80;100827.50;5066332;28;45342;-56
2022/11/07 10:34:34;;;;;;;;;2.50;0.75;;;;;19.88;47.94;100816.38;5082491;28;44754;-56
2022/11/07 10:37:00;;;;;;;;;1.00;1.00;;;;;19.93;47.58;100822.25;5059728;28;46305;-56
2022/11/07 10:39:28;;;;;;;;;1.00;1.00;;;;;19.88;47.48;100821.63;5058515;28;45338;-55
2022/11/07 10:42:07;;;;;;;;;2.00;1.25;;;;;19.95;47.45;100831.84;5058569;28;45492;-54
2022/11/07 10:44:33;;;;;;;;;4.00;1.50;;;;;19.94;48.12;100830.97;5059036;28;45372;-55
2022/11/07 10:46:59;;;;;;;;;2.50;1.00;;;;;19.95;47.53;100826.59;5058499;28;46254;-56
2022/11/07 10:49:29;;;;;;;;;3.00;1.25;;;;;19.89;47.63;100819.88;5058279;28;45337;-55
2022/11/07 10:52:06;;;;;;;;;1.75;1.00;;;;;19.94;47.32;100823.09;5058526;28;45249;-55
2022/11/07 10:54:32;;;;;;;;;2.25;1.00;;;;;19.93;47.59;100829.28;5059742;28;45647;-57
2022/11/07 10:57:12;;;;;;;;;1.00;1.00;;;;;19.87;47.58;100819.09;5061057;28;45351;-56
2022/11/07 10:59:43;;;;;;;;;1.75;1.00;;;;;19.88;47.68;100820.78;5060311;28;45833;-55
2022/11/07 11:02:46;;;;;;;;;1.00;1.00;;;;;19.94;47.67;100828.34;5064911;28;45244;-56
2022/11/07 11:05:21;;;;;;;;;3.00;1.00;;;;;19.91;47.63;100823.22;5077272;28;44952;-56
2022/11/07 11:07:46;;;;;;;;;1.75;1.75;;;;;19.92;47.88;100830.19;5075720;28;45068;-54
2022/11/07 11:10:27;;;;;;;;;1.00;1.00;;;;;19.93;47.52;100827.50;5069493;28;45460;-55
2022/11/07 11:12:53;;;;;;;;;1.00;1.00;;;;;19.91;47.34;100824.09;5066321;28;45457;-55
2022/11/07 11:15:26;;;;;;;;;1.00;1.00;;;;;19.87;47.58;100805.94;5069251;28;45335;-56
2022/11/07 11:18:01;;;;;;;;;4.75;2.00;;;;;19.86;47.42;100812.97;5058281;28;46250;-56
2022/11/07 11:20:32;;;;;;;;;0.50;0.25;;;;;19.93;47.75;100817.00;5058244;28;45957;-57
2022/11/07 11:23:00;;;;;;;;;0.75;0.75;;;;;19.93;47.50;100810.84;5058233;28;45220;-56
2022/11/07 11:25:25;;;;;;;;;2.00;1.50;;;;;19.94;47.98;100807.31;5079400;28;45573;-56
2022/11/07 11:27:59;;;;;;;;;2.00;2.00;;;;;19.94;47.58;100815.19;5083806;28;45910;-55
2022/11/07 11:30:25;;;;;;;;;2.50;1.00;;;;;19.88;47.26;100803.22;5062757;28;45840;-56
2022/11/07 11:33:12;;;;;;;;;2.00;1.25;;;;;19.95;47.81;100821.31;5058561;28;45527;-56
2022/11/07 11:35:46;;;;;;;;;3.50;1.00;;;;;19.96;47.35;100815.09;5058170;28;45410;-55